Time;durP1;ratioP1;P1;durP2;ratioP2;P2;SDS_P1;SDS_P2;PMS_P1;PMS_P2;Temp;Humidity;BMP_temperature;BMP_pressure;BME280_temperature;BME280_humidity;BME280_pressure;Samples;Min_cycle;Max_cycle;Signal;HPM_P1;HPM_P2
2022/05/12 00:00:12;;;;;;;5.22;1.90;;;11.20;99.90;;;;;;5032072;28;20091;-71
2022/05/12 00:02:39;;;;;;;5.65;2.38;;;11.10;99.90;;;;;;5032666;28;20052;-71
2022/05/12 00:05:07;;;;;;;7.05;1.67;;;11.10;99.90;;;;;;5014888;28;20123;-70
2022/05/12 00:07:34;;;;;;;3.45;1.67;;;11.00;99.90;;;;;;5031686;28;20549;-71
2022/05/12 00:10:00;;;;;;;4.57;1.80;;;11.00;99.90;;;;;;5032827;28;20053;-69
2022/05/12 00:12:28;;;;;;;6.20;1.67;;;10.90;99.90;;;;;;5032680;28;20054;-69
2022/05/12 00:14:56;;;;;;;5.00;1.55;;;10.80;99.90;;;;;;5032002;28;20182;-68
2022/05/12 00:17:23;;;;;;;6.55;1.45;;;10.70;99.90;;;;;;5016272;28;20049;-68
2022/05/12 00:19:50;;;;;;;5.35;1.60;;;10.70;99.90;;;;;;5018991;28;20077;-69
2022/05/12 00:22:17;;;;;;;4.55;1.67;;;10.60;99.90;;;;;;5019069;28;20489;-70
2022/05/12 00:24:43;;;;;;;3.58;1.50;;;10.50;99.90;;;;;;5037332;28;20136;-70
2022/05/12 00:27:10;;;;;;;5.68;1.55;;;10.40;99.90;;;;;;5018943;28;20081;-69
2022/05/12 00:29:37;;;;;;;2.25;1.10;;;10.40;99.90;;;;;;5018912;28;20108;-70
2022/05/12 00:32:06;;;;;;;2.63;1.35;;;10.30;99.90;;;;;;5019116;28;20575;-70
2022/05/12 00:34:33;;;;;;;5.38;1.30;;;10.20;99.90;;;;;;5035323;28;20050;-69
2022/05/12 00:37:00;;;;;;;4.18;1.10;;;10.20;99.90;;;;;;5018296;28;20057;-69
2022/05/12 00:39:27;;;;;;;5.05;2.00;;;10.10;99.90;;;;;;5019042;28;20138;-70
2022/05/12 00:41:53;;;;;;;4.68;1.42;;;10.10;99.90;;;;;;5018392;28;20058;-69
2022/05/12 00:44:20;;;;;;;3.35;1.02;;;10.00;99.90;;;;;;5019128;28;20064;-70
2022/05/12 00:46:49;;;;;;;3.50;1.50;;;10.00;99.90;;;;;;5037038;28;20053;-69
2022/05/12 00:49:22;;;;;;;6.28;1.60;;;9.90;99.90;;;;;;5017677;28;20504;-69
2022/05/12 00:51:53;;;;;;;2.28;1.20;;;9.90;99.90;;;;;;5036166;28;20079;-69
2022/05/12 00:54:24;;;;;;;2.83;1.23;;;9.80;99.90;;;;;;5018282;28;20501;-69
2022/05/12 00:56:53;;;;;;;3.97;1.48;;;9.80;99.90;;;;;;5017902;28;20049;-69
2022/05/12 00:59:29;;;;;;;2.83;1.10;;;9.70;99.90;;;;;;5018183;28;20049;-69
2022/05/12 01:01:57;;;;;;;4.05;1.42;;;9.60;99.90;;;;;;5017816;28;20057;-69
2022/05/12 01:04:26;;;;;;;4.75;1.23;;;9.60;99.90;;;;;;5035156;28;20071;-69
2022/05/12 01:06:53;;;;;;;5.70;1.58;;;9.60;99.90;;;;;;5018239;28;20142;-68
2022/05/12 01:09:21;;;;;;;6.38;1.70;;;9.50;99.90;;;;;;5017701;28;20140;-68
2022/05/12 01:11:48;;;;;;;3.63;1.35;;;9.50;99.90;;;;;;5034850;28;20045;-69
2022/05/12 01:14:16;;;;;;;5.78;1.70;;;9.50;99.90;;;;;;5017997;28;20049;-70
2022/05/12 01:16:46;;;;;;;2.40;1.20;;;9.40;99.90;;;;;;5017774;28;20501;-70
2022/05/12 01:19:17;;;;;;;2.60;1.33;;;9.40;99.90;;;;;;5034898;28;20064;-71
2022/05/12 01:21:45;;;;;;;;;;;9.40;99.90;;;;;;5036326;28;20049;-69
2022/05/12 01:24:15;;;;;;;2.78;1.35;;;9.50;99.90;;;;;;5016799;28;19921;-69
2022/05/12 01:26:42;;;;;;;5.53;1.23;;;9.30;99.90;;;;;;5035011;28;20093;-69
2022/05/12 01:29:10;;;;;;;5.50;1.60;;;9.30;99.90;;;;;;5016560;28;20053;-68
2022/05/12 01:31:37;;;;;;;6.95;1.50;;;9.30;99.90;;;;;;5016771;28;20469;-69
2022/05/12 01:34:06;;;;;;;2.83;1.17;;;9.30;99.90;;;;;;5035483;28;20054;-69
2022/05/12 01:36:33;;;;;;;6.20;1.52;;;9.30;99.90;;;;;;5017587;28;20050;-70
2022/05/12 01:39:00;;;;;;;3.25;1.10;;;9.20;99.90;;;;;;5034496;28;20111;-68
2022/05/12 01:41:28;;;;;;;3.72;1.80;;;9.20;99.90;;;;;;5017988;28;20084;-68
2022/05/12 01:43:55;;;;;;;4.47;1.40;;;9.20;99.90;;;;;;5035065;28;20049;-69
2022/05/12 01:46:22;;;;;;;17.73;2.10;;;9.10;99.90;;;;;;5034328;28;20077;-70
2022/05/12 01:48:49;;;;;;;4.95;1.55;;;9.10;99.90;;;;;;5035007;28;20103;-69
2022/05/12 01:51:16;;;;;;;3.13;1.35;;;9.10;99.90;;;;;;5034258;28;20508;-68
2022/05/12 01:53:43;;;;;;;3.33;1.85;;;9.00;99.90;;;;;;5034006;28;20100;-69
2022/05/12 01:56:10;;;;;;;3.65;1.73;;;9.00;99.90;;;;;;5034979;28;20134;-68
2022/05/12 01:58:39;;;;;;;10.32;1.83;;;9.00;99.90;;;;;;5035071;28;20524;-70
2022/05/12 02:01:06;;;;;;;5.47;2.47;;;9.00;99.90;;;;;;5017666;28;20049;-69
2022/05/12 02:03:34;;;;;;;6.05;2.05;;;9.00;99.90;;;;;;5021278;28;20059;-69
2022/05/12 02:06:02;;;;;;;5.15;1.98;;;9.00;99.90;;;;;;5016621;28;20057;-70
2022/05/12 02:08:29;;;;;;;6.72;2.38;;;9.00;99.90;;;;;;5033912;28;20052;-69
2022/05/12 02:10:56;;;;;;;4.50;1.90;;;9.00;99.90;;;;;;5016902;28;20054;-70
2022/05/12 02:13:25;;;;;;;5.60;2.20;;;8.90;99.90;;;;;;5033627;28;20409;-70
2022/05/12 02:15:56;;;;;;;7.07;2.20;;;8.90;99.90;;;;;;5016544;28;20057;-69
2022/05/12 02:18:24;;;;;;;3.65;2.45;;;8.90;99.90;;;;;;5034601;28;20120;-69
2022/05/12 02:20:51;;;;;;;8.30;2.22;;;8.90;99.90;;;;;;5033437;28;20064;-70
2022/05/12 02:23:18;;;;;;;7.45;2.63;;;8.90;99.90;;;;;;5034506;28;20045;-69
2022/05/12 02:25:46;;;;;;;6.10;2.53;;;8.90;99.90;;;;;;5016125;28;20054;-69
2022/05/12 02:28:13;;;;;;;7.60;2.33;;;8.90;99.90;;;;;;5033774;28;20053;-70
2022/05/12 02:30:39;;;;;;;7.38;2.42;;;8.80;99.90;;;;;;5016590;28;20065;-69
2022/05/12 02:33:08;;;;;;;5.75;2.80;;;8.80;99.90;;;;;;5016002;28;20133;-69
2022/05/12 02:35:36;;;;;;;4.85;2.47;;;8.90;99.90;;;;;;5015486;28;20137;-69
2022/05/12 02:38:03;;;;;;;10.40;3.60;;;8.80;99.90;;;;;;5016388;28;20136;-69
2022/05/12 02:40:31;;;;;;;6.30;2.72;;;8.80;99.90;;;;;;5033635;28;20211;-70
2022/05/12 02:42:59;;;;;;;8.00;3.17;;;8.80;99.90;;;;;;5015770;28;20406;-69
2022/05/12 02:45:26;;;;;;;6.95;3.47;;;8.80;99.90;;;;;;5016346;28;20057;-69
2022/05/12 02:47:53;;;;;;;7.68;2.92;;;8.80;99.90;;;;;;5033470;28;20409;-68
2022/05/12 02:50:22;;;;;;;10.48;3.90;;;8.80;99.90;;;;;;5015172;28;20046;-69
2022/05/12 02:52:49;;;;;;;7.95;3.08;;;8.80;99.90;;;;;;5016262;28;20045;-69
2022/05/12 02:55:16;;;;;;;9.65;3.47;;;8.70;99.90;;;;;;5033674;28;20057;-69
2022/05/12 02:57:43;;;;;;;10.40;3.60;;;8.80;99.90;;;;;;5032998;28;20046;-69
2022/05/12 03:00:16;;;;;;;9.18;3.40;;;8.70;99.90;;;;;;5033564;28;20053;-69
2022/05/12 03:02:43;;;;;;;9.80;3.95;;;8.70;99.90;;;;;;5015162;28;20061;-68
2022/05/12 03:05:10;;;;;;;8.82;3.38;;;8.80;99.90;;;;;;5015664;28;20050;-68
2022/05/12 03:07:39;;;;;;;10.55;4.65;;;8.80;99.90;;;;;;5015899;28;20061;-68
2022/05/12 03:10:06;;;;;;;9.70;5.20;;;8.70;99.90;;;;;;5015243;28;20567;-70
2022/05/12 03:12:33;;;;;;;15.05;4.47;;;8.70;99.90;;;;;;5015918;28;20054;-69
2022/05/12 03:15:00;;;;;;;12.27;4.30;;;9.00;99.90;;;;;;5033176;28;20053;-69
2022/05/12 03:17:27;;;;;;;7.15;4.05;;;8.80;99.90;;;;;;5015208;28;20096;-69
2022/05/12 03:19:54;;;;;;;13.10;3.78;;;8.80;99.90;;;;;;5033276;28;20045;-69
2022/05/12 03:22:21;;;;;;;8.73;4.03;;;8.70;99.90;;;;;;5015337;28;20459;-69
2022/05/12 03:24:49;;;;;;;12.00;4.35;;;8.80;99.90;;;;;;5032458;28;20072;-69
2022/05/12 03:27:16;;;;;;;9.45;4.15;;;8.80;99.90;;;;;;5032821;28;20049;-69
2022/05/12 03:29:43;;;;;;;10.23;4.70;;;8.80;99.90;;;;;;5032685;28;20635;-68
2022/05/12 03:32:12;;;;;;;10.57;4.72;;;8.80;99.90;;;;;;5032198;28;20493;-68
2022/05/12 03:34:39;;;;;;;11.57;4.72;;;8.80;99.90;;;;;;5032666;28;20452;-68
2022/05/12 03:37:07;;;;;;;17.10;5.32;;;8.80;99.90;;;;;;5032298;28;20051;-69
2022/05/12 03:39:35;;;;;;;13.38;4.70;;;8.80;99.90;;;;;;5032405;28;20045;-70
2022/05/12 03:42:04;;;;;;;10.13;4.35;;;8.80;99.90;;;;;;5015407;28;20107;-69
2022/05/12 03:44:49;;;;;;;12.30;5.50;;;8.80;99.90;;;;;;5014939;28;20056;-70
2022/05/12 03:47:19;;;;;;;9.15;4.22;;;8.90;99.90;;;;;;5028566;28;20053;-69
2022/05/12 03:49:47;;;;;;;11.50;5.03;;;9.00;99.90;;;;;;4998609;28;20050;-69
2022/05/12 03:52:14;;;;;;;12.80;5.43;;;9.20;99.90;;;;;;5006957;28;20136;-69
2022/05/12 03:54:41;;;;;;;11.00;4.47;;;9.30;99.90;;;;;;5028344;28;20506;-69
2022/05/12 03:57:10;;;;;;;10.30;4.72;;;9.60;99.90;;;;;;5014652;28;20083;-70
2022/05/12 03:59:38;;;;;;;15.77;6.18;;;9.50;99.90;;;;;;5029394;28;20082;-68
2022/05/12 04:02:05;;;;;;;12.85;4.82;;;9.60;99.90;;;;;;5009641;28;20080;-69
2022/05/12 04:04:32;;;;;;;10.90;4.30;;;9.60;99.90;;;;;;5008793;28;20076;-69
2022/05/12 04:07:00;;;;;;;13.45;4.03;;;9.60;99.90;;;;;;5029021;28;20050;-69
2022/05/12 04:09:27;;;;;;;10.98;5.28;;;9.70;99.90;;;;;;5016759;28;20050;-69
2022/05/12 04:11:54;;;;;;;15.30;4.80;;;9.70;99.90;;;;;;5028279;28;20428;-70
2022/05/12 04:14:23;;;;;;;12.73;5.28;;;9.50;99.90;;;;;;5027277;28;20140;-70
2022/05/12 04:16:52;;;;;;;9.10;4.28;;;9.60;99.90;;;;;;5013141;28;20050;-70
2022/05/12 04:19:19;;;;;;;8.65;4.47;;;9.70;99.90;;;;;;5032107;28;20049;-69
2022/05/12 04:21:46;;;;;;;10.50;4.97;;;9.70;99.90;;;;;;5028858;28;20049;-70
2022/05/12 04:24:13;;;;;;;10.50;4.20;;;9.60;99.90;;;;;;5009735;28;20054;-70
2022/05/12 04:26:41;;;;;;;8.68;4.80;;;10.30;99.90;;;;;;5027859;28;20085;-69
2022/05/12 04:29:08;;;;;;;12.57;5.38;;;9.80;99.90;;;;;;5012593;28;20564;-68
2022/05/12 04:31:36;;;;;;;11.48;5.28;;;9.90;99.90;;;;;;5010319;28;20216;-69
2022/05/12 04:36:47;;;;;;;10.55;4.80;;;9.90;99.90;;;;;;5011506;28;20382;-70
2022/05/12 04:39:15;;;;;;;10.45;4.90;;;10.00;99.90;;;;;;4999658;28;20081;-69
2022/05/12 04:41:42;;;;;;;14.55;6.22;;;9.90;99.90;;;;;;5001722;28;20437;-69
2022/05/12 04:44:08;;;;;;;13.32;5.15;;;9.80;99.90;;;;;;5015337;28;20054;-69
2022/05/12 04:46:38;;;;;;;10.88;4.85;;;9.70;99.90;;;;;;5007314;28;20088;-70
2022/05/12 04:49:07;;;;;;;10.25;5.35;;;9.70;99.90;;;;;;5022301;28;20058;-69
2022/05/12 04:51:34;;;;;;;14.40;5.40;;;9.70;99.90;;;;;;5014708;28;20571;-70
2022/05/12 04:54:01;;;;;;;15.30;6.05;;;9.70;99.90;;;;;;5005608;28;21833;-73
2022/05/12 04:56:28;;;;;;;14.35;5.97;;;9.70;99.90;;;;;;5014201;28;20053;-72
2022/05/12 04:58:55;;;;;;;9.98;5.47;;;9.80;99.90;;;;;;5015019;28;20096;-73
2022/05/12 05:01:22;;;;;;;8.90;4.47;;;9.80;99.90;;;;;;5005331;28;20110;-72
2022/05/12 05:03:50;;;;;;;10.93;5.05;;;10.00;99.90;;;;;;5020683;28;20151;-72
2022/05/12 05:06:17;;;;;;;9.95;4.80;;;10.00;99.90;;;;;;5006696;28;20054;-71
2022/05/12 05:08:44;;;;;;;11.05;5.22;;;10.10;99.90;;;;;;5010126;28;20049;-71
2022/05/12 05:11:11;;;;;;;11.15;5.13;;;10.20;99.90;;;;;;5020293;28;20425;-70
2022/05/12 05:13:38;;;;;;;10.70;5.05;;;10.40;99.90;;;;;;5032507;28;20045;-73
2022/05/12 05:16:05;;;;;;;8.65;4.80;;;10.50;99.90;;;;;;5014662;28;20054;-72
2022/05/12 05:18:32;;;;;;;10.30;5.53;;;10.50;99.90;;;;;;5025193;28;20100;-72
2022/05/12 05:21:01;;;;;;;14.32;6.43;;;10.60;99.90;;;;;;5026615;28;20069;-71
2022/05/12 05:23:28;;;;;;;16.25;6.40;;;10.80;99.90;;;;;;5005184;28;20083;-72
2022/05/12 05:25:55;;;;;;;12.65;5.80;;;10.90;99.90;;;;;;5008728;28;20085;-71
2022/05/12 05:28:22;;;;;;;14.20;5.78;;;11.10;99.90;;;;;;5013606;28;20528;-73
2022/05/12 05:30:50;;;;;;;12.32;5.22;;;11.30;99.90;;;;;;5000182;28;20050;-73
2022/05/12 05:33:18;;;;;;;16.23;5.68;;;11.40;99.90;;;;;;5020425;28;20128;-71
2022/05/12 05:35:45;;;;;;;12.18;5.25;;;11.60;99.90;;;;;;5012720;28;20045;-72
2022/05/12 05:38:15;;;;;;;13.27;5.90;;;11.70;99.90;;;;;;5029323;28;20439;-72
2022/05/12 05:40:42;;;;;;;7.57;4.75;;;11.80;99.90;;;;;;5003497;28;20583;-72
2022/05/12 05:43:09;;;;;;;9.20;5.35;;;12.00;99.90;;;;;;5016791;28;20057;-72
2022/05/12 05:45:36;;;;;;;17.85;5.30;;;12.10;99.90;;;;;;5034302;28;20151;-72
2022/05/12 05:48:06;;;;;;;14.20;5.15;;;12.30;99.90;;;;;;5029750;28;20057;-72
2022/05/12 05:53:23;;;;;;;14.30;4.43;;;12.40;99.90;;;;;;5008888;28;20045;-73
2022/05/12 05:53:24;;;;;;;7.60;4.40;;;12.60;99.90;;;;;;5016325;28;20049;-73
2022/05/12 05:55:52;;;;;;;12.23;4.90;;;12.80;99.90;;;;;;5016778;28;20109;-74
2022/05/12 05:58:19;;;;;;;12.23;5.00;;;13.00;99.90;;;;;;5033923;28;20555;-73
2022/05/12 06:00:46;;;;;;;14.52;4.82;;;13.20;99.90;;;;;;5033982;28;20080;-73
2022/05/12 06:03:13;;;;;;;10.63;4.18;;;13.30;99.90;;;;;;5016307;28;20378;-73
2022/05/12 06:05:41;;;;;;;6.72;3.88;;;13.40;99.90;;;;;;5020370;28;20108;-73
2022/05/12 06:08:10;;;;;;;7.93;3.30;;;13.40;99.90;;;;;;4997226;28;20529;-73
2022/05/12 06:10:39;;;;;;;11.57;3.50;;;13.60;99.90;;;;;;5014477;28;20050;-72
2022/05/12 06:13:06;;;;;;;12.23;3.78;;;13.80;99.90;;;;;;4996650;28;20061;-73
2022/05/12 06:15:34;;;;;;;9.77;3.13;;;14.00;99.90;;;;;;5013701;28;20081;-74
2022/05/12 06:18:01;;;;;;;8.82;3.92;;;14.20;99.90;;;;;;5023559;28;20092;-74
2022/05/12 06:20:28;;;;;;;6.07;2.47;;;14.30;99.90;;;;;;5016174;28;20398;-74
2022/05/12 06:22:55;;;;;;;9.48;2.78;;;14.40;99.90;;;;;;5016636;28;20049;-72
2022/05/12 06:25:22;;;;;;;9.48;3.30;;;14.50;99.90;;;;;;5016106;28;20049;-72
2022/05/12 06:27:51;;;;;;;6.07;3.17;;;14.70;99.90;;;;;;5033181;28;20107;-73
2022/05/12 06:30:19;;;;;;;6.63;3.78;;;14.90;99.90;;;;;;5002046;28;20413;-73
2022/05/12 06:32:46;;;;;;;6.80;3.08;;;15.10;99.90;;;;;;4996444;28;20049;-74
2022/05/12 06:35:17;;;;;;;8.48;3.28;;;15.50;99.90;;;;;;5013652;28;20050;-73
2022/05/12 06:37:44;;;;;;;6.10;2.83;;;15.60;99.90;;;;;;5013910;28;20058;-72
2022/05/12 06:40:12;;;;;;;9.30;2.70;;;15.90;99.90;;;;;;5013983;28;20056;-74
2022/05/12 06:42:41;;;;;;;6.40;2.47;;;16.40;99.90;;;;;;5013632;28;20449;-74
2022/05/12 06:45:10;;;;;;;8.20;2.70;;;16.70;99.90;;;;;;4996000;28;20482;-73
2022/05/12 06:47:37;;;;;;;12.60;3.43;;;17.00;99.90;;;;;;5013721;28;20054;-74
2022/05/12 06:50:05;;;;;;;12.10;3.17;;;17.40;99.90;;;;;;5015178;28;20120;-74
2022/05/12 06:52:32;;;;;;;7.47;2.65;;;17.70;99.90;;;;;;5016393;28;20053;-74
2022/05/12 06:54:59;;;;;;;9.13;2.65;;;18.20;99.90;;;;;;5015588;28;20104;-73
2022/05/12 06:57:27;;;;;;;7.82;2.22;;;18.60;99.90;;;;;;5010872;28;20120;-73
2022/05/12 06:59:55;;;;;;;4.65;1.85;;;18.90;99.90;;;;;;5003510;28;20057;-73
2022/05/12 07:02:24;;;;;;;6.93;2.63;;;18.90;99.90;;;;;;5021794;28;20058;-74
2022/05/12 07:12:13;;;;;;;8.82;2.20;;;19.60;99.90;;;;;;5016067;28;20043;-74
2022/05/12 07:14:40;;;;;;;4.68;2.10;;;19.80;99.90;;;;;;5005473;28;20100;-72
2022/05/12 07:17:07;;;;;;;5.18;2.20;;;20.00;99.90;;;;;;5021830;28;20097;-73
2022/05/12 07:19:35;;;;;;;6.18;2.45;;;20.30;99.90;;;;;;5003638;28;20573;-73
2022/05/12 07:27:31;;;;;;;5.85;2.30;;;20.60;98.90;;;;;;5027272;28;20133;-73
2022/05/12 07:29:58;;;;;;;5.60;1.67;;;20.80;98.80;;;;;;5031813;28;20457;-74
2022/05/12 07:32:25;;;;;;;5.95;1.77;;;20.70;97.10;;;;;;5015532;28;20077;-74
2022/05/12 07:34:53;;;;;;;7.65;2.00;;;20.50;96.70;;;;;;5015262;28;20056;-74
2022/05/12 07:37:20;;;;;;;4.93;1.95;;;20.50;97.20;;;;;;5014616;28;20079;-74
2022/05/12 07:39:47;;;;;;;6.05;1.60;;;19.90;98.90;;;;;;5015294;28;20065;-74
2022/05/12 07:42:14;;;;;;;6.80;1.80;;;19.40;99.50;;;;;;5033161;28;20046;-74
2022/05/12 07:44:40;;;;;;;6.15;1.80;;;19.70;98.90;;;;;;5015266;28;20091;-74
2022/05/12 07:47:10;;;;;;;8.63;2.45;;;20.10;97.90;;;;;;5015055;28;20107;-74
2022/05/12 07:49:38;;;;;;;5.20;1.50;;;20.50;96.30;;;;;;5015312;28;20068;-74
2022/05/12 07:52:09;;;;;;;7.80;1.70;;;21.10;96.30;;;;;;5014890;28;20386;-73
2022/05/12 07:54:36;;;;;;;6.03;1.70;;;21.60;95.10;;;;;;5015238;28;20077;-74
2022/05/12 07:57:04;;;;;;;9.93;1.73;;;21.70;93.40;;;;;;5032478;28;20092;-74
2022/05/12 07:59:32;;;;;;;5.30;1.70;;;21.90;92.20;;;;;;5032045;28;20052;-74
2022/05/12 08:01:59;;;;;;;5.97;1.85;;;21.90;90.80;;;;;;5032694;28;20081;-74
2022/05/12 08:04:27;;;;;;;5.47;1.58;;;21.90;90.20;;;;;;5032764;28;20100;-74
2022/05/12 08:06:54;;;;;;;5.47;2.10;;;22.20;90.10;;;;;;5014651;28;20485;-74
2022/05/12 08:09:22;;;;;;;6.28;1.60;;;22.70;90.20;;;;;;5015404;28;20050;-74
2022/05/12 08:11:49;;;;;;;5.53;1.75;;;22.50;85.90;;;;;;5015045;28;20111;-76
2022/05/12 08:14:16;;;;;;;4.97;1.92;;;22.50;85.00;;;;;;5014292;28;20111;-75
2022/05/12 08:16:43;;;;;;;5.70;1.42;;;22.80;84.60;;;;;;5014482;28;20049;-74
2022/05/12 08:19:10;;;;;;;4.72;1.60;;;22.90;84.20;;;;;;5032063;28;20440;-74
2022/05/12 08:21:36;;;;;;;3.90;1.30;;;23.10;82.40;;;;;;5032473;28;20124;-74
2022/05/12 08:24:03;;;;;;;4.25;1.35;;;23.30;82.90;;;;;;5014686;28;20095;-75
2022/05/12 08:26:33;;;;;;;6.80;1.70;;;23.80;81.70;;;;;;5014262;28;20061;-75
2022/05/12 08:29:00;;;;;;;4.10;1.50;;;23.70;77.20;;;;;;5015217;28;20046;-75
2022/05/12 08:31:29;;;;;;;5.13;1.58;;;23.30;76.60;;;;;;5032218;28;20072;-74
2022/05/12 08:33:57;;;;;;;4.68;1.67;;;23.30;76.50;;;;;;5014720;28;20052;-74
2022/05/12 08:36:24;;;;;;;3.97;1.42;;;23.10;76.00;;;;;;5032689;28;20049;-75
2022/05/12 08:38:52;;;;;;;3.53;1.58;;;23.30;75.90;;;;;;5016534;28;20111;-74
2022/05/12 08:41:28;;;;;;;6.50;1.77;;;23.30;75.00;;;;;;5035590;28;20053;-75
2022/05/12 08:43:58;;;;;;;3.58;1.20;;;23.80;74.60;;;;;;5036308;28;20053;-74
2022/05/12 08:46:29;;;;;;;3.72;1.40;;;23.50;73.00;;;;;;5020679;28;20057;-73
2022/05/12 08:49:05;;;;;;;4.93;1.60;;;24.00;74.10;;;;;;5035766;28;20057;-74
2022/05/12 08:51:36;;;;;;;3.53;1.48;;;24.10;72.40;;;;;;5034648;28;20112;-73
2022/05/12 08:54:05;;;;;;;4.57;1.38;;;24.10;71.80;;;;;;5036298;28;20045;-74
2022/05/12 08:56:33;;;;;;;4.88;1.30;;;24.10;72.10;;;;;;5035058;28;20081;-74
2022/05/12 08:59:02;;;;;;;4.80;1.38;;;24.10;72.10;;;;;;5035931;28;20066;-74
2022/05/12 09:01:37;;;;;;;8.25;1.85;;;23.80;73.80;;;;;;5035061;28;20057;-74
2022/05/12 09:04:30;;;;;;;7.18;1.50;;;23.60;74.00;;;;;;5035641;28;20507;-74
2022/05/12 09:07:07;;;;;;;6.82;1.50;;;22.80;74.00;;;;;;5035442;28;20111;-74
2022/05/12 09:09:43;;;;;;;6.07;1.95;;;22.90;74.70;;;;;;5035047;28;20056;-75
2022/05/12 09:12:22;;;;;;;7.70;1.90;;;22.90;74.40;;;;;;5018221;28;20445;-74
2022/05/12 09:14:56;;;;;;;5.38;1.60;;;22.80;72.90;;;;;;5035069;28;20045;-74
2022/05/12 09:17:30;;;;;;;5.45;1.50;;;22.00;74.60;;;;;;5016479;28;20083;-75
2022/05/12 09:19:59;;;;;;;5.05;1.20;;;21.20;74.00;;;;;;5017604;28;20087;-74
2022/05/12 09:22:28;;;;;;;3.38;1.60;;;21.20;74.40;;;;;;5017188;28;20049;-75
2022/05/12 09:24:56;;;;;;;6.07;1.70;;;21.50;75.50;;;;;;5018171;28;20055;-75
2022/05/12 09:27:29;;;;;;;3.78;1.45;;;21.70;74.90;;;;;;5036689;28;20053;-74
2022/05/12 09:29:58;;;;;;;7.30;1.45;;;21.20;73.20;;;;;;5041612;28;20088;-74
2022/05/12 09:32:27;;;;;;;5.78;1.60;;;21.10;74.00;;;;;;5020184;28;20493;-74
2022/05/12 09:35:21;;;;;;;7.17;2.03;;;20.80;73.60;;;;;;5013569;28;20042;-74
2022/05/12 09:37:49;;;;;;;4.57;1.08;;;20.90;74.40;;;;;;5014529;28;20042;-75
2022/05/12 09:40:21;;;;;;;6.07;1.27;;;21.80;73.80;;;;;;5021410;28;20137;-72
2022/05/12 09:42:49;;;;;;;6.25;1.73;;;22.40;71.00;;;;;;5029668;28;20107;-72
2022/05/12 09:45:27;;;;;;;4.65;1.40;;;22.90;69.70;;;;;;5031807;28;20559;-74
2022/05/12 09:48:10;;;;;;;4.55;1.20;;;23.40;69.50;;;;;;4998920;28;20124;-74
2022/05/12 09:50:37;;;;;;;6.07;1.73;;;23.90;67.60;;;;;;4994528;28;20111;-73
2022/05/12 09:53:07;;;;;;;4.35;1.30;;;23.90;67.50;;;;;;5006854;28;20065;-74
2022/05/12 09:55:36;;;;;;;4.65;1.33;;;24.30;66.90;;;;;;5027360;28;20041;-74
2022/05/12 09:58:06;;;;;;;6.47;1.48;;;23.80;66.90;;;;;;5012495;28;20053;-74
2022/05/12 10:00:37;;;;;;;;;;;23.40;67.00;;;;;;5000397;28;20050;-73
2022/05/12 10:08:45;;;;;;;4.05;1.00;;;23.70;68.20;;;;;;4996517;28;20097;-74
2022/05/12 10:11:14;;;;;;;4.38;1.38;;;24.30;66.30;;;;;;5021270;28;20494;-74
2022/05/12 10:13:47;;;;;;;3.63;1.20;;;24.70;66.70;;;;;;5015146;28;20059;-73
2022/05/12 10:16:24;;;;;;;4.25;1.40;;;25.10;65.00;;;;;;5007586;28;20076;-73
2022/05/12 10:18:55;;;;;;;4.95;1.10;;;25.00;64.60;;;;;;4999139;28;20049;-73
2022/05/12 10:21:25;;;;;;;6.13;1.20;;;25.40;63.40;;;;;;5012128;28;20088;-74
2022/05/12 10:23:57;;;;;;;;;;;24.70;63.00;;;;;;5032464;28;20045;-74
2022/05/12 10:26:35;;;;;;;3.67;1.13;;;24.20;61.80;;;;;;5032357;28;20366;-74
2022/05/12 10:29:10;;;;;;;3.38;1.38;;;24.10;62.80;;;;;;5016552;28;20123;-75
2022/05/12 10:31:49;;;;;;;4.75;1.10;;;23.70;63.90;;;;;;5016134;28;20057;-74
2022/05/12 10:34:30;;;;;;;2.72;1.08;;;23.00;64.40;;;;;;5016051;28;20080;-75
2022/05/12 10:37:05;;;;;;;4.20;1.20;;;22.80;64.60;;;;;;5033748;28;20049;-75
2022/05/12 10:39:42;;;;;;;4.05;1.38;;;22.80;65.40;;;;;;5016557;28;20053;-75
2022/05/12 10:42:22;;;;;;;5.10;1.45;;;23.50;66.30;;;;;;5033539;28;20077;-74
2022/05/12 10:45:05;;;;;;;4.07;1.33;;;24.30;63.80;;;;;;5033458;28;20045;-75
2022/05/12 10:47:52;;;;;;;6.57;1.50;;;24.50;63.50;;;;;;5015451;28;20054;-75
2022/05/12 10:50:25;;;;;;;3.47;1.30;;;24.90;62.70;;;;;;5033701;28;20592;-75
2022/05/12 10:53:03;;;;;;;4.97;1.10;;;24.70;62.40;;;;;;5033505;28;20053;-74
2022/05/12 10:55:44;;;;;;;4.55;1.27;;;24.30;61.80;;;;;;5015465;28;20174;-74
2022/05/12 10:58:23;;;;;;;3.05;1.35;;;24.00;61.40;;;;;;5033559;28;20096;-74
2022/05/12 11:01:06;;;;;;;3.38;1.38;;;24.20;61.90;;;;;;5033321;28;20055;-75
2022/05/12 11:03:39;;;;;;;3.85;1.27;;;24.20;62.30;;;;;;5016149;28;20405;-74
2022/05/12 11:06:11;;;;;;;5.35;1.40;;;24.40;61.40;;;;;;5015426;28;20056;-75
2022/05/12 11:08:44;;;;;;;3.35;1.13;;;24.60;61.00;;;;;;5015183;28;20111;-75
2022/05/12 11:11:15;;;;;;;3.42;0.90;;;25.00;61.00;;;;;;5033658;28;20116;-75
2022/05/12 11:13:50;;;;;;;5.55;1.35;;;25.00;60.10;;;;;;5032759;28;20055;-74
2022/05/12 11:16:21;;;;;;;3.55;0.98;;;25.20;59.80;;;;;;5015258;28;20045;-74
2022/05/12 11:18:56;;;;;;;3.97;1.10;;;25.20;59.90;;;;;;5015384;28;20053;-74
2022/05/12 11:21:27;;;;;;;3.92;1.10;;;25.50;59.30;;;;;;5033624;28;20057;-73
2022/05/12 11:24:06;;;;;;;4.65;1.00;;;25.80;60.00;;;;;;5032841;28;20049;-76
2022/05/12 11:26:48;;;;;;;3.30;1.30;;;25.70;58.40;;;;;;5032886;28;20084;-74
2022/05/12 11:32:21;;;;;;;4.10;0.80;;;25.30;60.30;;;;;;5015540;28;20053;-74
2022/05/12 11:34:55;;;;;;;4.22;0.90;;;25.20;58.30;;;;;;5032642;28;20060;-74
2022/05/12 11:37:31;;;;;;;5.93;0.82;;;24.60;59.30;;;;;;5014894;28;20049;-74
2022/05/12 11:39:59;;;;;;;4.13;1.02;;;23.90;59.40;;;;;;5015568;28;20472;-74
2022/05/12 11:42:28;;;;;;;4.78;0.93;;;24.40;60.70;;;;;;5033036;28;20049;-74
2022/05/12 11:45:01;;;;;;;3.78;1.20;;;24.50;60.10;;;;;;5015081;28;20057;-75
2022/05/12 11:47:56;;;;;;;5.65;1.33;;;24.90;59.80;;;;;;5032605;28;20139;-74
2022/05/12 11:50:56;;;;;;;3.60;1.17;;;24.40;59.30;;;;;;5005202;28;20061;-74
2022/05/12 11:53:25;;;;;;;5.70;1.75;;;24.00;60.60;;;;;;4989242;28;20559;-74
2022/05/12 11:56:02;;;;;;;5.00;1.60;;;23.90;61.50;;;;;;5032463;28;20386;-74
2022/05/12 11:58:48;;;;;;;5.25;1.30;;;23.70;62.70;;;;;;5014785;28;20703;-74
2022/05/12 12:01:36;;;;;;;3.92;1.30;;;23.90;62.20;;;;;;5033476;28;20049;-74
2022/05/12 12:04:05;;;;;;;5.05;1.58;;;23.70;62.20;;;;;;5019136;28;20060;-74
2022/05/12 12:06:43;;;;;;;3.10;1.40;;;23.50;62.10;;;;;;5018067;28;20108;-75
2022/05/12 12:09:48;;;;;;;3.88;1.15;;;23.50;61.80;;;;;;5015872;28;20089;-74
2022/05/12 12:12:49;;;;;;;4.53;1.40;;;23.00;62.60;;;;;;5015125;28;20060;-73
2022/05/12 12:15:54;;;;;;;4.40;1.55;;;22.30;63.60;;;;;;5036857;28;20050;-75
2022/05/12 12:18:52;;;;;;;4.53;1.05;;;23.00;64.50;;;;;;5036004;28;20497;-74
2022/05/12 12:21:47;;;;;;;3.13;1.65;;;24.00;64.00;;;;;;5036653;28;20057;-75
2022/05/12 12:24:44;;;;;;;3.38;1.45;;;24.40;61.30;;;;;;5001456;28;20075;-74
2022/05/12 12:28:03;;;;;;;5.97;1.50;;;24.80;61.30;;;;;;5015118;28;20421;-75
2022/05/12 12:31:06;;;;;;;6.90;1.48;;;25.30;59.90;;;;;;5015128;28;20057;-75
2022/05/12 12:33:40;;;;;;;4.72;0.95;;;26.00;61.30;;;;;;5012341;28;20112;-74
2022/05/12 12:36:28;;;;;;;3.17;0.93;;;26.40;58.70;;;;;;5015511;28;20108;-74
2022/05/12 12:39:09;;;;;;;3.45;1.10;;;26.60;58.00;;;;;;5016341;28;20054;-74
2022/05/12 12:41:39;;;;;;;2.28;1.10;;;26.00;56.80;;;;;;5014594;28;20551;-74
2022/05/12 12:44:12;;;;;;;3.13;1.00;;;25.40;55.70;;;;;;5016364;28;20058;-74
2022/05/12 12:47:11;;;;;;;2.63;0.98;;;25.70;56.60;;;;;;5015082;28;20052;-75
2022/05/12 12:49:49;;;;;;;3.47;1.00;;;26.20;57.60;;;;;;5016218;28;20096;-74
2022/05/12 12:52:17;;;;;;;4.70;1.38;;;26.20;56.90;;;;;;5015499;28;20058;-75
2022/05/12 12:57:43;;;;;;;6.97;1.20;;;24.20;58.70;;;;;;5014411;28;20061;-74
2022/05/12 13:00:14;;;;;;;4.07;1.10;;;23.40;58.60;;;;;;5016312;28;20045;-74
2022/05/12 13:02:43;;;;;;;3.33;1.00;;;23.50;59.30;;;;;;5015752;28;20053;-74
2022/05/12 13:05:14;;;;;;;4.50;1.20;;;24.00;58.30;;;;;;5014806;28;20493;-76
2022/05/12 13:07:43;;;;;;;3.47;1.13;;;24.10;58.20;;;;;;5015806;28;20054;-74
2022/05/12 13:10:16;;;;;;;6.53;1.35;;;23.80;58.40;;;;;;5014973;28;20053;-73
2022/05/12 13:12:52;;;;;;;5.00;1.40;;;23.60;58.60;;;;;;5015913;28;20145;-73
2022/05/12 13:15:20;;;;;;;2.38;0.80;;;24.40;58.10;;;;;;4997731;28;20054;-75
2022/05/12 13:17:51;;;;;;;5.68;1.65;;;24.80;58.30;;;;;;5015012;28;20494;-76
2022/05/12 13:20:21;;;;;;;3.85;1.15;;;24.90;57.80;;;;;;5014545;28;20085;-76
2022/05/12 13:22:50;;;;;;;4.82;1.30;;;24.50;57.80;;;;;;5014843;28;20140;-75
2022/05/12 13:25:21;;;;;;;;;;;25.00;57.80;;;;;;5014431;28;20509;-76
2022/05/12 13:27:50;;;;;;;2.97;1.10;;;24.40;57.80;;;;;;5014531;28;19951;-74
2022/05/12 13:30:20;;;;;;;3.53;1.25;;;23.60;58.30;;;;;;5015128;28;20050;-75
2022/05/12 13:32:49;;;;;;;6.88;1.58;;;23.30;58.50;;;;;;5014505;28;20064;-74